sensor_id;sensor_type;location;lat;lon;timestamp;P1;durP1;ratioP1;P2;durP2;ratioP2
50769;SDS011;36740;48.698;11.472;2022-07-18T00:00:28;6.10;;;2.65;;
50769;SDS011;36740;48.698;11.472;2022-07-18T00:03:13;4.03;;;2.78;;
50769;SDS011;36740;48.698;11.472;2022-07-18T00:05:59;2.28;;;2.05;;
50769;SDS011;36740;48.698;11.472;2022-07-18T00:08:44;5.07;;;2.88;;
50769;SDS011;36740;48.698;11.472;2022-07-18T00:11:30;3.45;;;2.45;;
50769;SDS011;36740;48.698;11.472;2022-07-18T00:14:16;4.40;;;2.95;;
50769;SDS011;36740;48.698;11.472;2022-07-18T00:17:02;4.22;;;2.95;;
50769;SDS011;36740;48.698;11.472;2022-07-18T00:19:48;5.82;;;2.22;;
50769;SDS011;36740;48.698;11.472;2022-07-18T00:22:34;5.05;;;2.22;;
50769;SDS011;36740;48.698;11.472;2022-07-18T00:25:20;3.45;;;2.22;;
50769;SDS011;36740;48.698;11.472;2022-07-18T00:28:06;4.00;;;1.95;;
50769;SDS011;36740;48.698;11.472;2022-07-18T00:30:51;10.40;;;2.47;;
50769;SDS011;36740;48.698;11.472;2022-07-18T00:33:37;3.78;;;2.22;;
50769;SDS011;36740;48.698;11.472;2022-07-18T00:36:22;6.88;;;3.15;;
50769;SDS011;36740;48.698;11.472;2022-07-18T00:39:08;2.33;;;1.92;;
50769;SDS011;36740;48.698;11.472;2022-07-18T00:41:54;3.85;;;1.98;;
50769;SDS011;36740;48.698;11.472;2022-07-18T00:44:40;2.55;;;2.25;;
50769;SDS011;36740;48.698;11.472;2022-07-18T00:47:25;4.72;;;2.65;;
50769;SDS011;36740;48.698;11.472;2022-07-18T00:50:11;4.07;;;2.55;;
50769;SDS011;36740;48.698;11.472;2022-07-18T00:52:56;5.45;;;3.38;;
50769;SDS011;36740;48.698;11.472;2022-07-18T00:55:43;3.28;;;2.45;;
50769;SDS011;36740;48.698;11.472;2022-07-18T00:58:29;5.85;;;3.45;;
50769;SDS011;36740;48.698;11.472;2022-07-18T01:01:15;3.83;;;3.00;;
50769;SDS011;36740;48.698;11.472;2022-07-18T01:04:21;3.22;;;2.90;;
50769;SDS011;36740;48.698;11.472;2022-07-18T01:07:06;2.90;;;2.28;;
50769;SDS011;36740;48.698;11.472;2022-07-18T01:09:52;6.13;;;2.90;;
50769;SDS011;36740;48.698;11.472;2022-07-18T01:12:38;2.70;;;1.80;;
50769;SDS011;36740;48.698;11.472;2022-07-18T01:15:23;4.13;;;2.25;;
50769;SDS011;36740;48.698;11.472;2022-07-18T01:18:09;5.10;;;2.65;;
50769;SDS011;36740;48.698;11.472;2022-07-18T01:20:55;4.82;;;2.25;;
50769;SDS011;36740;48.698;11.472;2022-07-18T01:23:41;4.95;;;3.03;;
50769;SDS011;36740;48.698;11.472;2022-07-18T01:26:27;2.38;;;2.08;;
50769;SDS011;36740;48.698;11.472;2022-07-18T01:29:13;8.93;;;2.88;;
50769;SDS011;36740;48.698;11.472;2022-07-18T01:32:08;4.15;;;2.35;;
50769;SDS011;36740;48.698;11.472;2022-07-18T01:34:54;4.60;;;2.22;;
50769;SDS011;36740;48.698;11.472;2022-07-18T01:37:39;5.40;;;3.00;;
50769;SDS011;36740;48.698;11.472;2022-07-18T01:40:25;3.97;;;2.63;;
50769;SDS011;36740;48.698;11.472;2022-07-18T01:43:11;3.08;;;2.10;;
50769;SDS011;36740;48.698;11.472;2022-07-18T01:45:57;4.15;;;2.58;;
50769;SDS011;36740;48.698;11.472;2022-07-18T01:48:43;3.72;;;2.05;;
50769;SDS011;36740;48.698;11.472;2022-07-18T01:51:28;4.78;;;2.33;;
50769;SDS011;36740;48.698;11.472;2022-07-18T01:54:14;4.05;;;3.03;;
50769;SDS011;36740;48.698;11.472;2022-07-18T01:57:00;4.50;;;2.88;;
50769;SDS011;36740;48.698;11.472;2022-07-18T01:59:46;4.95;;;2.22;;
50769;SDS011;36740;48.698;11.472;2022-07-18T02:02:32;3.40;;;2.53;;
50769;SDS011;36740;48.698;11.472;2022-07-18T02:05:17;4.53;;;2.65;;
50769;SDS011;36740;48.698;11.472;2022-07-18T02:08:03;3.88;;;2.33;;
50769;SDS011;36740;48.698;11.472;2022-07-18T02:10:49;3.30;;;2.83;;
50769;SDS011;36740;48.698;11.472;2022-07-18T02:13:34;3.80;;;2.42;;
50769;SDS011;36740;48.698;11.472;2022-07-18T02:16:20;3.38;;;2.42;;
50769;SDS011;36740;48.698;11.472;2022-07-18T02:19:06;18.13;;;3.00;;
50769;SDS011;36740;48.698;11.472;2022-07-18T02:21:51;4.35;;;2.65;;
50769;SDS011;36740;48.698;11.472;2022-07-18T02:24:37;7.53;;;3.10;;
50769;SDS011;36740;48.698;11.472;2022-07-18T02:27:23;5.25;;;3.17;;
50769;SDS011;36740;48.698;11.472;2022-07-18T02:30:09;8.65;;;4.50;;
50769;SDS011;36740;48.698;11.472;2022-07-18T02:32:55;4.10;;;3.00;;
50769;SDS011;36740;48.698;11.472;2022-07-18T02:35:41;4.22;;;2.70;;
50769;SDS011;36740;48.698;11.472;2022-07-18T02:38:27;3.40;;;2.15;;
50769;SDS011;36740;48.698;11.472;2022-07-18T02:41:12;4.30;;;2.70;;
50769;SDS011;36740;48.698;11.472;2022-07-18T02:43:58;6.25;;;2.83;;
50769;SDS011;36740;48.698;11.472;2022-07-18T02:46:44;8.55;;;3.88;;
50769;SDS011;36740;48.698;11.472;2022-07-18T02:49:30;4.00;;;2.67;;
50769;SDS011;36740;48.698;11.472;2022-07-18T02:52:17;5.45;;;3.05;;
50769;SDS011;36740;48.698;11.472;2022-07-18T02:55:03;4.30;;;3.17;;
50769;SDS011;36740;48.698;11.472;2022-07-18T02:57:49;4.75;;;3.05;;
50769;SDS011;36740;48.698;11.472;2022-07-18T03:00:35;4.90;;;3.40;;
50769;SDS011;36740;48.698;11.472;2022-07-18T03:03:20;5.30;;;3.40;;
50769;SDS011;36740;48.698;11.472;2022-07-18T03:06:08;4.10;;;3.00;;
50769;SDS011;36740;48.698;11.472;2022-07-18T03:08:54;5.57;;;3.33;;
50769;SDS011;36740;48.698;11.472;2022-07-18T03:11:40;5.72;;;3.75;;
50769;SDS011;36740;48.698;11.472;2022-07-18T03:14:25;6.70;;;3.22;;
50769;SDS011;36740;48.698;11.472;2022-07-18T03:17:11;5.85;;;2.70;;
50769;SDS011;36740;48.698;11.472;2022-07-18T03:19:57;6.20;;;2.88;;
50769;SDS011;36740;48.698;11.472;2022-07-18T03:22:42;4.43;;;2.80;;
50769;SDS011;36740;48.698;11.472;2022-07-18T03:25:28;3.22;;;2.33;;
50769;SDS011;36740;48.698;11.472;2022-07-18T03:28:14;3.22;;;2.35;;
50769;SDS011;36740;48.698;11.472;2022-07-18T03:30:59;4.80;;;3.15;;
50769;SDS011;36740;48.698;11.472;2022-07-18T03:33:45;3.50;;;2.70;;
50769;SDS011;36740;48.698;11.472;2022-07-18T03:36:31;4.38;;;3.40;;
50769;SDS011;36740;48.698;11.472;2022-07-18T03:39:17;6.28;;;2.35;;
50769;SDS011;36740;48.698;11.472;2022-07-18T03:42:02;5.10;;;4.03;;
50769;SDS011;36740;48.698;11.472;2022-07-18T03:44:48;4.63;;;2.30;;
50769;SDS011;36740;48.698;11.472;2022-07-18T03:47:34;4.95;;;3.25;;
50769;SDS011;36740;48.698;11.472;2022-07-18T03:50:20;6.20;;;3.50;;
50769;SDS011;36740;48.698;11.472;2022-07-18T03:53:05;6.00;;;3.58;;
50769;SDS011;36740;48.698;11.472;2022-07-18T03:55:51;4.22;;;2.58;;
50769;SDS011;36740;48.698;11.472;2022-07-18T03:58:37;4.00;;;2.70;;
50769;SDS011;36740;48.698;11.472;2022-07-18T04:01:22;4.00;;;2.97;;
50769;SDS011;36740;48.698;11.472;2022-07-18T04:04:08;5.55;;;2.58;;
50769;SDS011;36740;48.698;11.472;2022-07-18T04:06:54;4.40;;;3.08;;
50769;SDS011;36740;48.698;11.472;2022-07-18T04:09:39;3.88;;;2.90;;
50769;SDS011;36740;48.698;11.472;2022-07-18T04:12:25;4.30;;;2.67;;
50769;SDS011;36740;48.698;11.472;2022-07-18T04:15:11;3.90;;;3.30;;
50769;SDS011;36740;48.698;11.472;2022-07-18T04:17:56;4.25;;;3.08;;
50769;SDS011;36740;48.698;11.472;2022-07-18T04:20:42;7.18;;;2.80;;
50769;SDS011;36740;48.698;11.472;2022-07-18T04:23:28;4.00;;;2.78;;
50769;SDS011;36740;48.698;11.472;2022-07-18T04:26:13;3.42;;;2.70;;
50769;SDS011;36740;48.698;11.472;2022-07-18T04:28:59;5.03;;;3.28;;
50769;SDS011;36740;48.698;11.472;2022-07-18T04:31:45;10.93;;;3.70;;
50769;SDS011;36740;48.698;11.472;2022-07-18T04:34:30;3.70;;;2.72;;
50769;SDS011;36740;48.698;11.472;2022-07-18T04:37:16;4.63;;;3.17;;
50769;SDS011;36740;48.698;11.472;2022-07-18T04:40:02;4.45;;;3.22;;
50769;SDS011;36740;48.698;11.472;2022-07-18T04:42:48;2.83;;;2.55;;
50769;SDS011;36740;48.698;11.472;2022-07-18T04:45:35;5.50;;;3.17;;
50769;SDS011;36740;48.698;11.472;2022-07-18T04:48:21;4.88;;;3.40;;
50769;SDS011;36740;48.698;11.472;2022-07-18T04:51:06;6.43;;;3.17;;
50769;SDS011;36740;48.698;11.472;2022-07-18T04:53:52;4.22;;;2.60;;
50769;SDS011;36740;48.698;11.472;2022-07-18T04:56:42;4.20;;;3.15;;
50769;SDS011;36740;48.698;11.472;2022-07-18T04:59:28;4.57;;;3.13;;
50769;SDS011;36740;48.698;11.472;2022-07-18T05:02:13;4.82;;;3.33;;
50769;SDS011;36740;48.698;11.472;2022-07-18T05:04:59;7.28;;;3.75;;
50769;SDS011;36740;48.698;11.472;2022-07-18T05:07:45;3.92;;;2.63;;
50769;SDS011;36740;48.698;11.472;2022-07-18T05:10:31;6.22;;;3.58;;
50769;SDS011;36740;48.698;11.472;2022-07-18T05:13:17;5.53;;;3.75;;
50769;SDS011;36740;48.698;11.472;2022-07-18T05:16:03;8.20;;;3.78;;
50769;SDS011;36740;48.698;11.472;2022-07-18T05:18:48;6.25;;;3.28;;
50769;SDS011;36740;48.698;11.472;2022-07-18T05:21:34;3.83;;;2.97;;
50769;SDS011;36740;48.698;11.472;2022-07-18T05:24:19;4.15;;;2.75;;
50769;SDS011;36740;48.698;11.472;2022-07-18T05:27:05;3.35;;;2.38;;
50769;SDS011;36740;48.698;11.472;2022-07-18T05:29:51;6.78;;;3.20;;
50769;SDS011;36740;48.698;11.472;2022-07-18T05:32:37;5.65;;;3.55;;
50769;SDS011;36740;48.698;11.472;2022-07-18T05:35:23;6.80;;;3.97;;
50769;SDS011;36740;48.698;11.472;2022-07-18T05:38:08;4.43;;;2.60;;
50769;SDS011;36740;48.698;11.472;2022-07-18T05:40:54;6.60;;;3.55;;
50769;SDS011;36740;48.698;11.472;2022-07-18T05:43:40;3.40;;;2.55;;
50769;SDS011;36740;48.698;11.472;2022-07-18T05:46:25;3.53;;;2.88;;
50769;SDS011;36740;48.698;11.472;2022-07-18T05:49:11;5.75;;;3.65;;
50769;SDS011;36740;48.698;11.472;2022-07-18T05:51:56;3.10;;;2.22;;
50769;SDS011;36740;48.698;11.472;2022-07-18T05:54:42;4.82;;;3.30;;
50769;SDS011;36740;48.698;11.472;2022-07-18T05:57:28;3.78;;;3.08;;
50769;SDS011;36740;48.698;11.472;2022-07-18T06:00:13;3.45;;;2.45;;
50769;SDS011;36740;48.698;11.472;2022-07-18T06:02:59;3.92;;;3.13;;
50769;SDS011;36740;48.698;11.472;2022-07-18T06:05:46;4.90;;;3.10;;
50769;SDS011;36740;48.698;11.472;2022-07-18T06:08:31;5.60;;;3.30;;
50769;SDS011;36740;48.698;11.472;2022-07-18T06:11:17;5.65;;;3.63;;
50769;SDS011;36740;48.698;11.472;2022-07-18T06:14:02;3.67;;;3.00;;
50769;SDS011;36740;48.698;11.472;2022-07-18T06:16:48;5.18;;;3.80;;
50769;SDS011;36740;48.698;11.472;2022-07-18T06:19:34;3.97;;;3.17;;
50769;SDS011;36740;48.698;11.472;2022-07-18T06:22:19;6.05;;;2.88;;
50769;SDS011;36740;48.698;11.472;2022-07-18T06:25:05;4.30;;;3.45;;
50769;SDS011;36740;48.698;11.472;2022-07-18T06:27:51;7.22;;;2.92;;
50769;SDS011;36740;48.698;11.472;2022-07-18T06:30:37;3.65;;;2.55;;
50769;SDS011;36740;48.698;11.472;2022-07-18T06:33:23;4.05;;;3.05;;
50769;SDS011;36740;48.698;11.472;2022-07-18T06:36:08;3.97;;;2.97;;
50769;SDS011;36740;48.698;11.472;2022-07-18T06:38:56;5.90;;;3.72;;
50769;SDS011;36740;48.698;11.472;2022-07-18T06:41:42;8.82;;;3.17;;
50769;SDS011;36740;48.698;11.472;2022-07-18T06:44:28;6.55;;;3.47;;
50769;SDS011;36740;48.698;11.472;2022-07-18T06:47:14;6.85;;;4.72;;
50769;SDS011;36740;48.698;11.472;2022-07-18T06:50:00;14.43;;;5.13;;
50769;SDS011;36740;48.698;11.472;2022-07-18T06:52:46;6.00;;;3.88;;
50769;SDS011;36740;48.698;11.472;2022-07-18T06:55:31;5.15;;;3.53;;
50769;SDS011;36740;48.698;11.472;2022-07-18T06:58:17;6.80;;;4.07;;
50769;SDS011;36740;48.698;11.472;2022-07-18T07:01:03;6.15;;;3.47;;
50769;SDS011;36740;48.698;11.472;2022-07-18T07:03:49;5.20;;;2.90;;
50769;SDS011;36740;48.698;11.472;2022-07-18T07:06:34;4.15;;;2.78;;
50769;SDS011;36740;48.698;11.472;2022-07-18T07:09:22;4.32;;;3.00;;
50769;SDS011;36740;48.698;11.472;2022-07-18T07:12:08;4.65;;;3.33;;
50769;SDS011;36740;48.698;11.472;2022-07-18T07:14:55;4.35;;;3.25;;
50769;SDS011;36740;48.698;11.472;2022-07-18T07:17:41;5.65;;;3.47;;
50769;SDS011;36740;48.698;11.472;2022-07-18T07:20:26;6.65;;;3.08;;
50769;SDS011;36740;48.698;11.472;2022-07-18T07:23:12;5.93;;;2.60;;
50769;SDS011;36740;48.698;11.472;2022-07-18T07:25:58;3.17;;;2.60;;
50769;SDS011;36740;48.698;11.472;2022-07-18T07:28:44;4.65;;;2.70;;
50769;SDS011;36740;48.698;11.472;2022-07-18T07:31:29;2.92;;;2.15;;
50769;SDS011;36740;48.698;11.472;2022-07-18T07:34:15;4.07;;;2.90;;
50769;SDS011;36740;48.698;11.472;2022-07-18T07:37:01;2.90;;;2.40;;
50769;SDS011;36740;48.698;11.472;2022-07-18T07:39:47;3.63;;;2.40;;
50769;SDS011;36740;48.698;11.472;2022-07-18T07:42:35;7.28;;;2.85;;
50769;SDS011;36740;48.698;11.472;2022-07-18T07:45:20;4.30;;;2.53;;
50769;SDS011;36740;48.698;11.472;2022-07-18T07:48:24;6.03;;;2.85;;
50769;SDS011;36740;48.698;11.472;2022-07-18T07:51:10;2.83;;;2.25;;
50769;SDS011;36740;48.698;11.472;2022-07-18T07:53:56;3.63;;;2.67;;
50769;SDS011;36740;48.698;11.472;2022-07-18T07:56:42;4.47;;;3.20;;
50769;SDS011;36740;48.698;11.472;2022-07-18T07:59:28;4.70;;;2.95;;
50769;SDS011;36740;48.698;11.472;2022-07-18T08:02:14;4.15;;;2.53;;
50769;SDS011;36740;48.698;11.472;2022-07-18T08:05:00;4.38;;;2.63;;
50769;SDS011;36740;48.698;11.472;2022-07-18T08:07:47;2.75;;;2.00;;
50769;SDS011;36740;48.698;11.472;2022-07-18T08:10:32;3.33;;;1.80;;
50769;SDS011;36740;48.698;11.472;2022-07-18T08:13:18;2.58;;;2.08;;
50769;SDS011;36740;48.698;11.472;2022-07-18T08:16:04;1.52;;;1.30;;
50769;SDS011;36740;48.698;11.472;2022-07-18T08:18:49;5.90;;;3.20;;
50769;SDS011;36740;48.698;11.472;2022-07-18T08:21:35;6.22;;;2.40;;
50769;SDS011;36740;48.698;11.472;2022-07-18T08:24:21;3.47;;;2.00;;
50769;SDS011;36740;48.698;11.472;2022-07-18T08:27:07;2.70;;;1.60;;
50769;SDS011;36740;48.698;11.472;2022-07-18T08:29:54;2.13;;;1.92;;
50769;SDS011;36740;48.698;11.472;2022-07-18T08:32:40;5.05;;;2.03;;
50769;SDS011;36740;48.698;11.472;2022-07-18T08:35:25;1.50;;;1.40;;
50769;SDS011;36740;48.698;11.472;2022-07-18T08:38:12;3.95;;;2.03;;
50769;SDS011;36740;48.698;11.472;2022-07-18T08:40:58;3.08;;;1.90;;
50769;SDS011;36740;48.698;11.472;2022-07-18T08:43:47;2.63;;;1.75;;
50769;SDS011;36740;48.698;11.472;2022-07-18T08:46:33;3.33;;;2.10;;
50769;SDS011;36740;48.698;11.472;2022-07-18T08:49:20;3.35;;;2.28;;
50769;SDS011;36740;48.698;11.472;2022-07-18T08:52:06;3.60;;;2.10;;
50769;SDS011;36740;48.698;11.472;2022-07-18T08:54:51;4.68;;;2.45;;
50769;SDS011;36740;48.698;11.472;2022-07-18T08:57:37;5.40;;;1.65;;
50769;SDS011;36740;48.698;11.472;2022-07-18T09:00:23;3.60;;;2.17;;
50769;SDS011;36740;48.698;11.472;2022-07-18T09:03:08;4.90;;;2.17;;
50769;SDS011;36740;48.698;11.472;2022-07-18T09:06:07;6.57;;;1.60;;
50769;SDS011;36740;48.698;11.472;2022-07-18T09:09:00;8.35;;;2.03;;
50769;SDS011;36740;48.698;11.472;2022-07-18T09:11:51;6.68;;;2.80;;
50769;SDS011;36740;48.698;11.472;2022-07-18T09:14:39;4.70;;;1.95;;
50769;SDS011;36740;48.698;11.472;2022-07-18T09:17:26;1.50;;;1.38;;
50769;SDS011;36740;48.698;11.472;2022-07-18T09:20:13;5.43;;;2.35;;
50769;SDS011;36740;48.698;11.472;2022-07-18T09:25:47;3.25;;;1.80;;
50769;SDS011;36740;48.698;11.472;2022-07-18T09:28:46;2.33;;;1.60;;
50769;SDS011;36740;48.698;11.472;2022-07-18T09:31:32;2.15;;;1.70;;
50769;SDS011;36740;48.698;11.472;2022-07-18T09:34:34;4.72;;;2.00;;
50769;SDS011;36740;48.698;11.472;2022-07-18T09:37:20;2.70;;;1.85;;
50769;SDS011;36740;48.698;11.472;2022-07-18T09:40:16;4.90;;;1.88;;
50769;SDS011;36740;48.698;11.472;2022-07-18T09:43:03;4.18;;;1.92;;
50769;SDS011;36740;48.698;11.472;2022-07-18T09:45:53;3.63;;;1.77;;
50769;SDS011;36740;48.698;11.472;2022-07-18T09:48:40;3.70;;;1.63;;
50769;SDS011;36740;48.698;11.472;2022-07-18T09:51:26;3.80;;;1.67;;
50769;SDS011;36740;48.698;11.472;2022-07-18T09:54:11;3.20;;;1.88;;
50769;SDS011;36740;48.698;11.472;2022-07-18T09:56:57;3.10;;;1.90;;
50769;SDS011;36740;48.698;11.472;2022-07-18T09:59:43;2.38;;;1.40;;
50769;SDS011;36740;48.698;11.472;2022-07-18T10:02:28;2.25;;;1.50;;
50769;SDS011;36740;48.698;11.472;2022-07-18T10:05:14;3.17;;;2.25;;
50769;SDS011;36740;48.698;11.472;2022-07-18T10:08:00;2.58;;;1.67;;
50769;SDS011;36740;48.698;11.472;2022-07-18T10:10:47;10.25;;;1.92;;
50769;SDS011;36740;48.698;11.472;2022-07-18T10:13:33;1.73;;;1.25;;
50769;SDS011;36740;48.698;11.472;2022-07-18T10:16:19;1.50;;;1.40;;
50769;SDS011;36740;48.698;11.472;2022-07-18T10:19:05;2.92;;;1.77;;
50769;SDS011;36740;48.698;11.472;2022-07-18T10:21:51;2.08;;;1.38;;
50769;SDS011;36740;48.698;11.472;2022-07-18T10:24:38;3.55;;;2.50;;
50769;SDS011;36740;48.698;11.472;2022-07-18T10:27:24;2.17;;;1.00;;
50769;SDS011;36740;48.698;11.472;2022-07-18T10:30:11;1.95;;;1.63;;
50769;SDS011;36740;48.698;11.472;2022-07-18T10:32:57;4.45;;;1.85;;
50769;SDS011;36740;48.698;11.472;2022-07-18T10:35:57;2.28;;;1.30;;
50769;SDS011;36740;48.698;11.472;2022-07-18T10:44:34;3.08;;;1.88;;
50769;SDS011;36740;48.698;11.472;2022-07-18T10:47:28;2.00;;;1.38;;
50769;SDS011;36740;48.698;11.472;2022-07-18T10:50:13;1.90;;;1.42;;
50769;SDS011;36740;48.698;11.472;2022-07-18T10:52:59;2.00;;;1.25;;
50769;SDS011;36740;48.698;11.472;2022-07-18T10:55:46;2.55;;;1.90;;
50769;SDS011;36740;48.698;11.472;2022-07-18T10:58:32;3.55;;;1.70;;
50769;SDS011;36740;48.698;11.472;2022-07-18T11:01:23;1.48;;;1.38;;
50769;SDS011;36740;48.698;11.472;2022-07-18T11:04:26;4.45;;;2.10;;
50769;SDS011;36740;48.698;11.472;2022-07-18T11:07:12;3.65;;;1.95;;
50769;SDS011;36740;48.698;11.472;2022-07-18T11:09:59;1.15;;;1.05;;
50769;SDS011;36740;48.698;11.472;2022-07-18T11:12:45;3.17;;;1.80;;
50769;SDS011;36740;48.698;11.472;2022-07-18T11:15:48;1.88;;;1.40;;
50769;SDS011;36740;48.698;11.472;2022-07-18T11:21:28;2.75;;;1.65;;
50769;SDS011;36740;48.698;11.472;2022-07-18T11:24:14;2.33;;;1.77;;
50769;SDS011;36740;48.698;11.472;2022-07-18T11:27:00;2.67;;;1.70;;
50769;SDS011;36740;48.698;11.472;2022-07-18T11:29:49;2.65;;;1.83;;
50769;SDS011;36740;48.698;11.472;2022-07-18T11:32:35;4.13;;;1.90;;
50769;SDS011;36740;48.698;11.472;2022-07-18T11:35:21;2.25;;;1.52;;
50769;SDS011;36740;48.698;11.472;2022-07-18T11:38:07;1.88;;;1.58;;
50769;SDS011;36740;48.698;11.472;2022-07-18T11:40:53;2.70;;;1.65;;
50769;SDS011;36740;48.698;11.472;2022-07-18T11:43:39;5.47;;;2.05;;
50769;SDS011;36740;48.698;11.472;2022-07-18T11:46:25;1.23;;;1.15;;
50769;SDS011;36740;48.698;11.472;2022-07-18T11:49:11;6.05;;;1.58;;
50769;SDS011;36740;48.698;11.472;2022-07-18T11:51:56;1.88;;;1.33;;
50769;SDS011;36740;48.698;11.472;2022-07-18T11:54:42;1.90;;;1.52;;
50769;SDS011;36740;48.698;11.472;2022-07-18T11:57:28;2.22;;;1.23;;
50769;SDS011;36740;48.698;11.472;2022-07-18T12:00:17;5.43;;;1.60;;
50769;SDS011;36740;48.698;11.472;2022-07-18T12:03:11;3.22;;;1.65;;
50769;SDS011;36740;48.698;11.472;2022-07-18T12:05:57;2.70;;;1.90;;
50769;SDS011;36740;48.698;11.472;2022-07-18T12:08:45;2.17;;;1.25;;
50769;SDS011;36740;48.698;11.472;2022-07-18T12:14:17;6.07;;;2.17;;
50769;SDS011;36740;48.698;11.472;2022-07-18T12:17:03;1.85;;;1.10;;
50769;SDS011;36740;48.698;11.472;2022-07-18T12:19:49;7.10;;;1.33;;
50769;SDS011;36740;48.698;11.472;2022-07-18T12:22:34;1.63;;;1.10;;
50769;SDS011;36740;48.698;11.472;2022-07-18T12:25:20;2.72;;;1.63;;
50769;SDS011;36740;48.698;11.472;2022-07-18T12:28:15;1.23;;;1.13;;
50769;SDS011;36740;48.698;11.472;2022-07-18T12:31:02;3.75;;;1.55;;
50769;SDS011;36740;48.698;11.472;2022-07-18T12:34:06;4.55;;;2.15;;
50769;SDS011;36740;48.698;11.472;2022-07-18T12:36:53;2.80;;;1.27;;
50769;SDS011;36740;48.698;11.472;2022-07-18T12:39:39;3.17;;;1.80;;
50769;SDS011;36740;48.698;11.472;2022-07-18T12:45:17;3.80;;;2.13;;
50769;SDS011;36740;48.698;11.472;2022-07-18T12:48:03;2.95;;;1.10;;
50769;SDS011;36740;48.698;11.472;2022-07-18T12:50:58;8.43;;;2.47;;
50769;SDS011;36740;48.698;11.472;2022-07-18T12:53:46;2.75;;;1.38;;
50769;SDS011;36740;48.698;11.472;2022-07-18T12:56:32;6.60;;;1.40;;
50769;SDS011;36740;48.698;11.472;2022-07-18T12:59:18;2.10;;;1.38;;
50769;SDS011;36740;48.698;11.472;2022-07-18T13:02:03;1.90;;;1.00;;
50769;SDS011;36740;48.698;11.472;2022-07-18T13:04:49;2.35;;;1.27;;
50769;SDS011;36740;48.698;11.472;2022-07-18T13:07:35;7.43;;;1.60;;
50769;SDS011;36740;48.698;11.472;2022-07-18T13:10:20;3.92;;;1.63;;
50769;SDS011;36740;48.698;11.472;2022-07-18T13:13:07;4.78;;;1.70;;
50769;SDS011;36740;48.698;11.472;2022-07-18T13:15:53;2.97;;;1.58;;
50769;SDS011;36740;48.698;11.472;2022-07-18T13:18:39;2.47;;;1.27;;
50769;SDS011;36740;48.698;11.472;2022-07-18T13:21:24;3.83;;;2.00;;
50769;SDS011;36740;48.698;11.472;2022-07-18T13:24:10;4.30;;;2.13;;
50769;SDS011;36740;48.698;11.472;2022-07-18T13:26:56;4.20;;;1.60;;
50769;SDS011;36740;48.698;11.472;2022-07-18T13:29:42;2.83;;;1.00;;
50769;SDS011;36740;48.698;11.472;2022-07-18T13:32:28;2.28;;;1.48;;
50769;SDS011;36740;48.698;11.472;2022-07-18T13:35:13;2.05;;;1.70;;
50769;SDS011;36740;48.698;11.472;2022-07-18T13:37:59;10.10;;;2.20;;
50769;SDS011;36740;48.698;11.472;2022-07-18T13:40:45;2.92;;;1.77;;
50769;SDS011;36740;48.698;11.472;2022-07-18T13:43:30;1.77;;;1.52;;
50769;SDS011;36740;48.698;11.472;2022-07-18T13:46:16;2.38;;;1.13;;
50769;SDS011;36740;48.698;11.472;2022-07-18T13:49:03;4.57;;;2.28;;
50769;SDS011;36740;48.698;11.472;2022-07-18T13:51:49;2.42;;;1.40;;
50769;SDS011;36740;48.698;11.472;2022-07-18T13:54:34;3.13;;;1.42;;
50769;SDS011;36740;48.698;11.472;2022-07-18T13:57:20;3.20;;;1.75;;
50769;SDS011;36740;48.698;11.472;2022-07-18T14:00:06;2.35;;;1.25;;
50769;SDS011;36740;48.698;11.472;2022-07-18T14:02:53;5.93;;;2.08;;
50769;SDS011;36740;48.698;11.472;2022-07-18T14:05:39;6.45;;;1.27;;
50769;SDS011;36740;48.698;11.472;2022-07-18T14:08:25;2.53;;;1.70;;
50769;SDS011;36740;48.698;11.472;2022-07-18T14:11:10;1.98;;;1.00;;
50769;SDS011;36740;48.698;11.472;2022-07-18T14:13:56;1.45;;;1.25;;
50769;SDS011;36740;48.698;11.472;2022-07-18T14:16:42;1.25;;;0.98;;
50769;SDS011;36740;48.698;11.472;2022-07-18T14:19:27;3.28;;;1.35;;
50769;SDS011;36740;48.698;11.472;2022-07-18T14:22:13;3.78;;;1.10;;
50769;SDS011;36740;48.698;11.472;2022-07-18T14:24:59;1.42;;;0.77;;
50769;SDS011;36740;48.698;11.472;2022-07-18T14:27:45;1.08;;;0.80;;
50769;SDS011;36740;48.698;11.472;2022-07-18T14:30:30;2.47;;;1.20;;
50769;SDS011;36740;48.698;11.472;2022-07-18T14:33:16;1.17;;;0.90;;
50769;SDS011;36740;48.698;11.472;2022-07-18T14:36:02;2.20;;;1.85;;
50769;SDS011;36740;48.698;11.472;2022-07-18T14:38:47;1.25;;;1.08;;
50769;SDS011;36740;48.698;11.472;2022-07-18T14:41:33;3.15;;;1.42;;
50769;SDS011;36740;48.698;11.472;2022-07-18T14:44:19;1.38;;;1.10;;
50769;SDS011;36740;48.698;11.472;2022-07-18T14:47:04;1.67;;;1.05;;
50769;SDS011;36740;48.698;11.472;2022-07-18T14:49:50;5.03;;;0.90;;
50769;SDS011;36740;48.698;11.472;2022-07-18T14:52:36;1.15;;;0.90;;
50769;SDS011;36740;48.698;11.472;2022-07-18T14:55:22;2.38;;;1.73;;
50769;SDS011;36740;48.698;11.472;2022-07-18T14:58:10;2.13;;;1.17;;
50769;SDS011;36740;48.698;11.472;2022-07-18T15:00:56;2.38;;;1.02;;
50769;SDS011;36740;48.698;11.472;2022-07-18T15:03:41;2.80;;;1.33;;
50769;SDS011;36740;48.698;11.472;2022-07-18T15:06:27;3.35;;;1.67;;
50769;SDS011;36740;48.698;11.472;2022-07-18T15:09:13;3.05;;;1.27;;
50769;SDS011;36740;48.698;11.472;2022-07-18T15:11:59;2.05;;;1.35;;
50769;SDS011;36740;48.698;11.472;2022-07-18T15:14:44;2.90;;;1.42;;
50769;SDS011;36740;48.698;11.472;2022-07-18T15:17:30;2.20;;;1.20;;
50769;SDS011;36740;48.698;11.472;2022-07-18T15:20:16;3.10;;;1.50;;
50769;SDS011;36740;48.698;11.472;2022-07-18T15:23:02;3.60;;;1.35;;
50769;SDS011;36740;48.698;11.472;2022-07-18T15:25:51;2.22;;;1.30;;
50769;SDS011;36740;48.698;11.472;2022-07-18T15:28:36;2.80;;;1.70;;
50769;SDS011;36740;48.698;11.472;2022-07-18T15:31:23;2.30;;;1.33;;
50769;SDS011;36740;48.698;11.472;2022-07-18T15:34:08;2.97;;;1.38;;
50769;SDS011;36740;48.698;11.472;2022-07-18T15:36:54;1.55;;;1.45;;
50769;SDS011;36740;48.698;11.472;2022-07-18T15:39:40;2.28;;;1.40;;
50769;SDS011;36740;48.698;11.472;2022-07-18T15:42:25;3.25;;;2.03;;
50769;SDS011;36740;48.698;11.472;2022-07-18T15:45:11;1.95;;;1.10;;
50769;SDS011;36740;48.698;11.472;2022-07-18T15:47:57;3.10;;;1.77;;
50769;SDS011;36740;48.698;11.472;2022-07-18T15:50:42;2.30;;;1.40;;
50769;SDS011;36740;48.698;11.472;2022-07-18T15:53:28;3.30;;;1.38;;
50769;SDS011;36740;48.698;11.472;2022-07-18T15:56:13;2.28;;;1.52;;
50769;SDS011;36740;48.698;11.472;2022-07-18T15:58:59;2.33;;;1.33;;
50769;SDS011;36740;48.698;11.472;2022-07-18T16:01:45;4.32;;;1.75;;
50769;SDS011;36740;48.698;11.472;2022-07-18T16:04:33;2.40;;;1.17;;
50769;SDS011;36740;48.698;11.472;2022-07-18T16:07:19;3.30;;;1.80;;
50769;SDS011;36740;48.698;11.472;2022-07-18T16:10:04;2.92;;;2.05;;
50769;SDS011;36740;48.698;11.472;2022-07-18T16:12:50;1.85;;;1.58;;
50769;SDS011;36740;48.698;11.472;2022-07-18T16:15:36;3.75;;;1.52;;
50769;SDS011;36740;48.698;11.472;2022-07-18T16:18:27;1.70;;;1.08;;
50769;SDS011;36740;48.698;11.472;2022-07-18T16:21:12;4.10;;;1.58;;
50769;SDS011;36740;48.698;11.472;2022-07-18T16:23:58;4.57;;;1.25;;
50769;SDS011;36740;48.698;11.472;2022-07-18T16:26:44;11.73;;;1.98;;
50769;SDS011;36740;48.698;11.472;2022-07-18T16:29:29;4.05;;;2.17;;
50769;SDS011;36740;48.698;11.472;2022-07-18T16:32:15;5.57;;;1.83;;
50769;SDS011;36740;48.698;11.472;2022-07-18T16:35:00;1.27;;;0.95;;
50769;SDS011;36740;48.698;11.472;2022-07-18T16:37:49;4.10;;;1.33;;
50769;SDS011;36740;48.698;11.472;2022-07-18T16:40:35;4.55;;;1.30;;
50769;SDS011;36740;48.698;11.472;2022-07-18T16:43:21;1.38;;;1.23;;